createdAt,value
2018-09-06T00:01:42.876Z,99996.00
2018-09-06T00:06:46.958Z,99995.00
2018-09-06T00:11:51.009Z,99993.00
2018-09-06T00:16:54.823Z,99980.00
2018-09-06T00:21:58.641Z,99980.00
2018-09-06T00:27:02.698Z,99981.00
2018-09-06T00:32:06.745Z,99977.00
2018-09-06T00:37:10.775Z,99958.00
2018-09-06T00:42:14.844Z,99956.00
2018-09-06T00:47:18.678Z,99959.00
2018-09-06T00:52:22.946Z,99957.00
2018-09-06T00:57:27.028Z,99963.00
2018-09-06T01:02:30.861Z,99955.00
2018-09-06T01:07:34.709Z,99956.00
2018-09-06T01:12:38.831Z,99955.00
2018-09-06T01:17:42.867Z,99958.00
2018-09-06T01:22:46.944Z,99950.00
2018-09-06T01:27:50.965Z,99943.00
2018-09-06T01:32:54.778Z,99936.00
2018-09-06T01:37:58.815Z,99941.00
2018-09-06T01:43:02.621Z,99936.00
2018-09-06T01:48:06.698Z,99935.00
2018-09-06T01:53:10.785Z,99925.00
2018-09-06T01:58:14.838Z,99926.00
2018-09-06T02:03:18.900Z,99927.00
2018-09-06T02:08:24.066Z,99922.00
2018-09-06T02:13:27.904Z,99921.00
2018-09-06T02:18:32.847Z,99903.00
2018-09-06T02:23:36.753Z,99901.00
2018-09-06T02:28:40.776Z,99899.00
2018-09-06T02:33:44.847Z,99891.00
2018-09-06T02:38:48.649Z,99880.00
2018-09-06T02:43:52.801Z,99869.00
2018-09-06T02:48:56.847Z,99868.00
2018-09-06T02:54:01.304Z,99872.00
2018-09-06T02:59:05.297Z,99866.00
2018-09-06T03:04:09.397Z,99882.00
2018-09-06T03:09:13.217Z,99926.00
2018-09-06T03:14:17.286Z,99904.00
2018-09-06T03:19:21.252Z,99894.00
2018-09-06T03:24:25.328Z,99903.00
2018-09-06T03:30:58.493Z,99900.00
2018-09-06T03:36:02.653Z,99903.00
2018-09-06T03:41:06.705Z,99893.00
2018-09-06T03:46:10.758Z,99893.00
2018-09-06T03:51:14.806Z,99888.00
2018-09-06T03:56:18.645Z,99879.00
2018-09-06T04:01:22.884Z,99871.00
2018-09-06T04:06:26.830Z,99860.00
2018-09-06T04:11:31.907Z,99854.00
2018-09-06T04:16:36.651Z,99858.00
2018-09-06T04:21:40.624Z,99863.00
2018-09-06T04:26:44.490Z,99865.00
2018-09-06T04:31:48.654Z,99869.00
2018-09-06T04:36:52.792Z,99877.00
2018-09-06T04:41:56.885Z,99878.00
2018-09-06T04:47:00.921Z,99869.00
2018-09-06T04:52:04.983Z,99864.00
2018-09-06T04:57:15.922Z,99854.00
2018-09-06T05:02:20.016Z,99857.00
2018-09-06T05:07:24.156Z,99839.00
2018-09-06T05:12:28.266Z,99795.00
2018-09-06T05:17:32.356Z,99739.00
2018-09-06T05:22:36.448Z,99688.00
2018-09-06T05:27:40.519Z,99642.00
2018-09-06T05:32:44.697Z,99620.00
2018-09-06T05:37:48.773Z,99563.00
2018-09-06T05:42:52.879Z,99476.00
2018-09-06T05:47:58.283Z,99423.00
2018-09-06T05:53:03.322Z,99369.00
2018-09-06T05:58:07.257Z,99328.00
2018-09-06T06:03:11.143Z,99279.00
2018-09-06T06:08:32.337Z,99223.00
2018-09-06T06:13:36.206Z,99159.00
2018-09-06T06:18:40.265Z,99101.00
2018-09-06T06:23:44.326Z,99047.00
2018-09-06T06:28:48.379Z,98966.00
2018-09-06T06:33:52.495Z,98913.00
2018-09-06T06:38:56.531Z,98829.00
2018-09-06T06:44:00.603Z,98765.00
2018-09-06T06:49:04.444Z,98729.00
2018-09-06T06:54:08.880Z,98685.00
2018-09-06T06:59:12.955Z,98650.00
2018-09-06T07:04:16.879Z,98627.00
2018-09-06T07:09:20.644Z,98616.00
2018-09-06T07:14:24.754Z,98583.00
2018-09-06T07:19:28.556Z,98557.00
2018-09-06T07:24:32.643Z,98537.00
2018-09-06T07:29:36.713Z,98524.00
2018-09-06T07:34:40.545Z,98506.00
2018-09-06T07:39:44.635Z,98510.00
2018-09-06T07:44:48.692Z,98498.00
2018-09-06T07:49:53.764Z,98529.00
2018-09-06T07:54:57.824Z,98539.00
2018-09-06T08:00:01.931Z,98576.00
2018-09-06T08:05:05.989Z,98587.00
2018-09-06T08:10:09.805Z,98590.00
2018-09-06T08:15:13.854Z,98604.00
2018-09-06T08:20:17.941Z,98584.00
2018-09-06T08:25:22.025Z,98592.00
2018-09-06T08:30:26.083Z,98607.00
2018-09-06T08:35:30.141Z,98594.00
2018-09-06T08:40:34.243Z,98589.00
2018-09-06T08:45:38.346Z,98602.00
2018-09-06T08:50:42.149Z,98622.00
2018-09-06T08:55:46.227Z,98628.00
2018-09-06T09:00:55.605Z,98635.00
2018-09-06T09:05:59.705Z,98624.00
2018-09-06T09:11:03.748Z,98627.00
2018-09-06T09:16:07.689Z,98631.00
2018-09-06T09:21:11.731Z,98639.00
2018-09-06T09:26:15.891Z,98660.00
2018-09-06T09:31:19.941Z,98697.00
2018-09-06T09:36:24.031Z,98753.00
2018-09-06T09:41:28.089Z,98774.00
2018-09-06T09:51:35.606Z,98760.00
2018-09-06T09:56:39.791Z,98790.00
2018-09-06T10:01:48.162Z,98838.00
2018-09-06T10:06:57.333Z,98910.00
2018-09-06T10:12:02.432Z,98942.00
2018-09-06T10:17:06.637Z,98958.00
2018-09-06T10:22:10.481Z,98910.00
2018-09-06T10:27:14.592Z,98934.00
2018-09-06T10:32:18.658Z,99008.00
2018-09-06T10:37:22.836Z,99036.00
2018-09-06T10:42:26.912Z,99121.00
2018-09-06T10:47:30.806Z,99100.00
2018-09-06T10:52:34.881Z,99084.00
2018-09-06T10:57:38.974Z,99057.00
2018-09-06T11:02:43.045Z,99066.00
2018-09-06T11:07:47.187Z,99107.00
2018-09-06T11:12:51.585Z,99080.00
2018-09-06T11:17:55.569Z,99073.00
2018-09-06T11:22:59.622Z,99041.00
2018-09-06T11:28:03.674Z,98985.00
2018-09-06T11:33:08.351Z,99014.00
2018-09-06T11:38:12.412Z,99039.00
2018-09-06T11:43:16.635Z,99071.00
2018-09-06T11:48:20.718Z,99078.00
2018-09-06T11:54:49.005Z,99085.00
2018-09-06T11:59:53.106Z,99165.00
2018-09-06T12:04:57.142Z,99211.00
2018-09-06T12:10:01.263Z,99181.00
2018-09-06T12:15:05.413Z,99203.00
2018-09-06T12:20:09.230Z,99229.00
2018-09-06T12:25:13.361Z,99230.00
2018-09-06T12:30:17.156Z,99184.00
2018-09-06T12:35:21.262Z,99137.00
2018-09-06T12:40:25.103Z,99177.00
2018-09-06T12:45:29.216Z,99202.00
2018-09-06T12:50:33.091Z,99217.00
2018-09-06T12:55:37.169Z,99241.00
2018-09-06T13:00:41.250Z,99211.00
2018-09-06T13:05:45.382Z,99206.00
2018-09-06T13:10:49.878Z,99178.00
2018-09-06T13:15:53.730Z,99206.00
2018-09-06T13:20:57.533Z,99182.00
2018-09-06T13:26:02.793Z,99118.00
2018-09-06T13:31:16.658Z,99128.00
2018-09-06T13:36:20.717Z,99150.00
2018-09-06T13:41:24.565Z,99144.00
2018-09-06T13:46:28.645Z,99147.00
2018-09-06T13:51:32.714Z,99143.00
2018-09-06T13:56:36.549Z,99151.00
2018-09-06T14:01:40.648Z,99157.00
2018-09-06T14:06:44.759Z,99140.00
2018-09-06T14:11:48.897Z,99108.00
2018-09-06T14:16:52.749Z,99068.00
2018-09-06T14:21:56.806Z,99030.00
2018-09-06T14:27:01.003Z,98943.00
2018-09-06T14:32:04.926Z,98939.00
2018-09-06T14:37:08.942Z,98906.00
2018-09-06T14:42:13.017Z,98919.00
2018-09-06T14:47:17.166Z,98969.00
2018-09-06T14:52:21.018Z,98963.00
2018-09-06T14:57:25.193Z,98994.00
2018-09-06T15:02:29.261Z,98999.00
2018-09-06T15:07:33.389Z,98990.00
2018-09-06T15:12:37.295Z,98944.00
2018-09-06T15:17:41.817Z,99000.00
2018-09-06T15:22:45.946Z,99049.00
2018-09-06T15:27:49.829Z,99087.00
2018-09-06T15:32:54.760Z,99117.00
2018-09-06T15:37:58.787Z,99142.00
2018-09-06T15:43:02.850Z,99148.00
2018-09-06T15:48:06.670Z,99144.00
2018-09-06T15:53:10.914Z,99186.00
2018-09-06T15:58:14.998Z,99165.00
2018-09-06T16:03:18.850Z,99144.00
2018-09-06T16:08:23.325Z,99141.00
2018-09-06T16:13:27.150Z,99100.00
2018-09-06T16:18:31.074Z,99015.00
2018-09-06T16:23:35.229Z,98986.00
2018-09-06T16:28:39.055Z,98993.00
2018-09-06T16:33:43.142Z,99045.00
2018-09-06T16:38:46.994Z,99068.00
2018-09-06T16:43:51.318Z,99092.00
2018-09-06T16:48:55.426Z,99049.00
2018-09-06T16:53:59.631Z,99215.00
2018-09-06T16:59:03.722Z,99337.00
2018-09-06T17:04:07.845Z,99345.00
2018-09-06T17:09:12.009Z,99377.00
2018-09-06T17:14:16.134Z,99360.00
2018-09-06T17:19:20.273Z,99338.00
2018-09-06T17:24:24.153Z,99316.00
2018-09-06T17:29:28.236Z,99300.00
2018-09-06T17:34:32.353Z,99270.00
2018-09-06T17:39:36.551Z,99261.00
2018-09-06T17:44:40.620Z,99238.00
2018-09-06T17:49:44.761Z,99236.00
2018-09-06T17:54:48.835Z,99221.00
2018-09-06T17:59:52.751Z,99221.00
2018-09-06T18:04:56.834Z,99209.00
2018-09-06T18:10:00.676Z,99215.00
2018-09-06T18:15:05.241Z,99217.00
2018-09-06T18:20:09.105Z,99222.00
2018-09-06T18:25:13.202Z,99232.00
2018-09-06T18:30:17.108Z,99226.00
2018-09-06T18:35:21.066Z,99215.00
2018-09-06T18:40:25.150Z,99237.00
2018-09-06T18:45:29.001Z,99211.00
2018-09-06T18:50:33.057Z,99214.00
2018-09-06T18:55:37.149Z,99197.00
2018-09-06T19:00:40.972Z,99156.00
2018-09-06T19:05:44.833Z,99114.00
2018-09-06T19:10:48.645Z,99084.00
2018-09-06T19:15:52.710Z,99049.00
2018-09-06T19:20:56.773Z,99026.00
2018-09-06T19:26:00.902Z,98979.00
2018-09-06T19:31:05.227Z,98948.00
2018-09-06T19:36:09.184Z,98922.00
2018-09-06T19:41:13.300Z,98896.00
2018-09-06T19:46:17.562Z,98863.00
2018-09-06T19:51:21.698Z,98844.00
2018-09-06T19:56:26.774Z,98827.00
2018-09-06T20:01:30.874Z,98804.00
2018-09-06T20:06:34.959Z,98782.00
2018-09-06T20:11:39.413Z,98768.00
2018-09-06T20:16:43.543Z,98756.00
2018-09-06T20:21:50.341Z,98747.00
2018-09-06T20:26:54.689Z,98744.00
2018-09-06T20:31:58.521Z,98760.00
2018-09-06T20:37:02.780Z,98794.00
2018-09-06T20:42:06.951Z,98858.00
2018-09-06T20:47:10.819Z,98889.00
2018-09-06T20:52:14.985Z,98913.00
2018-09-06T20:57:19.094Z,98923.00
2018-09-06T21:02:24.393Z,98925.00
2018-09-06T21:07:28.208Z,98935.00
2018-09-06T21:12:32.038Z,98987.00
2018-09-06T21:17:37.081Z,99018.00
2018-09-06T21:22:41.918Z,99009.00
2018-09-06T21:27:46.062Z,99003.00
2018-09-06T21:32:50.098Z,98994.00
2018-09-06T21:37:53.921Z,98965.00
2018-09-06T21:42:58.037Z,98952.00
2018-09-06T21:48:02.142Z,98925.00
2018-09-06T21:53:06.259Z,98897.00
2018-09-06T21:58:10.069Z,98865.00
2018-09-06T22:03:19.394Z,98860.00
2018-09-06T22:08:23.270Z,98851.00
2018-09-06T22:13:27.327Z,98847.00
2018-09-06T22:18:31.201Z,98849.00
2018-09-06T22:23:35.015Z,98845.00
2018-09-06T22:28:39.133Z,98844.00
2018-09-06T22:33:42.954Z,98830.00
2018-09-06T22:38:47.082Z,98825.00
2018-09-06T22:43:51.154Z,98827.00
2018-09-06T22:48:55.246Z,98810.00
2018-09-06T22:53:59.033Z,98811.00
2018-09-06T22:59:03.111Z,98807.00
2018-09-06T23:04:06.952Z,98806.00
2018-09-06T23:09:11.005Z,98805.00
2018-09-06T23:14:15.062Z,98799.00
2018-09-06T23:19:18.890Z,98783.00
2018-09-06T23:24:23.008Z,98784.00
2018-09-06T23:29:27.067Z,98793.00
2018-09-06T23:34:36.672Z,98818.00
2018-09-06T23:39:40.747Z,98822.00
2018-09-06T23:44:44.573Z,98826.00
2018-09-06T23:49:48.818Z,98821.00
2018-09-06T23:54:52.938Z,98835.00
2018-09-06T23:59:57.001Z,98837.00
